»·PEaware :: N905DJ KLMT-KMFR

N905DJ :: KLMT-KMFR

FLIGHT INFORMATION

Flight Status: Arrived
Operator: Privately registered:
United States
More flights under this callsign
Pilot: Drew L. (13237)
Aircraft: AIRBUS A320
(A320)
More flights by this aircraft type
Origin: KLMT Klamath Falls Intl
United States
Destination: KMFR Rogue Valley Intl-Medford
United States
More flights between these airports :: More routes between these airports
Route: LMT6 OED
File this flight plan on PilotEdge
Remarks: ROGER
Altitude:
(Current/Filed)
12,000ft
Speed:
(Current/Filed)
0kts
Departed: 02-Oct-18 05:31 PM
Arrived: 02-Oct-18 06:09 PM
Distance/Time
Traveled:
52nm/0:37
Distance/Time
To Go:
Arrived

Flight Plot

Page will automatically refresh every two minutes.

Flight plan parsing failed; only flown route is shown


Map Options




Map Legend


Flown Route
Filed Route
Departure Airport
Arrival Airport
Navaid (VOR, NDB)
Fix

Horizontal Profiles

Position Reports

Time Latitude Longitude Heading Altitude Ground
Speed
02-Oct-18 17:06 42.167482 -121.742614 88 4098ft 0kts
02-Oct-18 17:07 42.167482 -121.742614 88 4098ft 0kts
02-Oct-18 17:08 42.167482 -121.742614 88 4098ft 0kts
02-Oct-18 17:09 42.167482 -121.742614 88 4098ft 0kts
02-Oct-18 17:10 42.167482 -121.742614 88 4098ft 0kts
02-Oct-18 17:11 42.167482 -121.742614 88 4098ft 0kts
02-Oct-18 17:12 42.167482 -121.742614 88 4098ft 0kts
02-Oct-18 17:13 42.167482 -121.742614 88 4098ft 0kts
02-Oct-18 17:14 42.167482 -121.742614 88 4098ft 0kts
02-Oct-18 17:15 42.167482 -121.742614 88 4098ft 0kts
02-Oct-18 17:16 42.167482 -121.742614 88 4098ft 0kts
02-Oct-18 17:17 42.167482 -121.742614 88 4098ft 0kts
02-Oct-18 17:18 42.167482 -121.742614 88 4098ft 0kts
02-Oct-18 17:19 42.167482 -121.742614 88 4098ft 0kts
02-Oct-18 17:20 42.167482 -121.742614 88 4098ft 0kts
02-Oct-18 17:21 42.167482 -121.742614 88 4098ft 0kts
02-Oct-18 17:22 42.167482 -121.742614 88 4098ft 0kts
02-Oct-18 17:23 42.167482 -121.742614 88 4098ft 0kts
02-Oct-18 17:24 42.167482 -121.742614 88 4098ft 0kts
02-Oct-18 17:25 42.167482 -121.742614 88 4098ft 0kts
02-Oct-18 17:26 42.167482 -121.742614 88 4098ft 0kts
02-Oct-18 17:27 42.167482 -121.742614 88 4098ft 0kts
02-Oct-18 17:28 42.167482 -121.742614 88 4098ft 0kts
02-Oct-18 17:29 42.167482 -121.742614 88 4098ft 0kts
02-Oct-18 17:30 42.167482 -121.742614 88 4098ft 0kts
02-Oct-18 17:31 42.167527 -121.742220 70 4098ft 9kts
02-Oct-18 17:32 42.167915 -121.741109 63 4099ft 8kts
02-Oct-18 17:33 42.148749 -121.729281 162 4527ft 182kts
02-Oct-18 17:34 42.115667 -121.761410 280 7563ft 226kts
02-Oct-18 17:35 42.143691 -121.852043 290 10475ft 290kts
02-Oct-18 17:36 42.179906 -121.964313 291 11961ft 365kts
02-Oct-18 17:37 42.218218 -122.083877 290 11992ft 333kts
02-Oct-18 17:38 42.254810 -122.198449 290 11992ft 334kts
02-Oct-18 17:39 42.291297 -122.313090 290 11966ft 333kts
02-Oct-18 17:40 42.327702 -122.427972 290 11928ft 333kts
02-Oct-18 17:41 42.364003 -122.543030 290 11909ft 334kts
02-Oct-18 17:42 42.399690 -122.656637 289 11904ft 334kts
02-Oct-18 17:43 42.375276 -122.754800 205 11381ft 301kts
02-Oct-18 17:44 42.298214 -122.728571 155 10455ft 299kts
02-Oct-18 17:45 42.225462 -122.676633 155 9913ft 298kts
02-Oct-18 17:46 42.150753 -122.646693 204 9945ft 281kts
02-Oct-18 17:47 42.116496 -122.733792 255 9399ft 275kts
02-Oct-18 17:48 42.098178 -122.833748 255 9218ft 276kts
02-Oct-18 17:49 42.084461 -122.934252 285 9205ft 279kts
02-Oct-18 17:50 42.149712 -122.967484 29 9208ft 300kts
02-Oct-18 17:51 42.200035 -122.877639 56 9206ft 305kts
02-Oct-18 17:52 42.257617 -122.800289 1 9432ft 297kts
02-Oct-18 17:53 42.334065 -122.834262 319 10873ft 293kts
02-Oct-18 17:54 42.335444 -122.925719 217 10909ft 284kts
02-Oct-18 17:55 42.265552 -122.975979 209 10906ft 287kts
02-Oct-18 17:56 42.195031 -123.025984 209 10907ft 288kts
02-Oct-18 17:57 42.124204 -123.076553 208 10906ft 290kts
02-Oct-18 17:58 42.056663 -123.041310 113 10789ft 306kts
02-Oct-18 17:59 42.026267 -122.934139 113 10326ft 307kts
02-Oct-18 18:00 41.995985 -122.829703 114 9179ft 295kts
02-Oct-18 18:01 41.999346 -122.719335 79 8960ft 303kts
02-Oct-18 18:02 42.040916 -122.629351 13 7237ft 313kts
02-Oct-18 18:03 42.120945 -122.606673 353 5342ft 277kts
02-Oct-18 18:04 42.179121 -122.651735 308 4563ft 218kts
02-Oct-18 18:05 42.216140 -122.708182 309 4536ft 189kts
02-Oct-18 18:06 42.244827 -122.766002 300 4498ft 185kts
02-Oct-18 18:07 42.274203 -122.812843 320 3664ft 155kts
02-Oct-18 18:08 42.307753 -122.838133 336 2367ft 128kts
02-Oct-18 18:09 42.341024 -122.855582 337 1819ft 129kts
02-Oct-18 18:10 42.372726 -122.872080 336 1324ft 86kts
02-Oct-18 18:11 42.376063 -122.875176 225 1324ft 3kts
02-Oct-18 18:12 42.371105 -122.874776 178 1324ft 0kts

Navigation Log

Ident Type
Flight plan parsing failed, navigation log unavailable